Terminal Aerodrome Forecast
Issued by NWS

Home | Current Version | Previous Version | Text Only | Print | Product List | Glossary On
Versions: 1 2 3 4 5 6 7 8 9 10 11 12 13 14 15 16 17 18 19 20 21 22 23 24 25 26
000
FTUS41 KBOX 212320
TAFFMH
TAF
KFMH 212320Z 2200/2224 08005KT P6SM BKN008
     FM220400 04006KT 6SM BR BKN008
     FM220600 03006KT 6SM -DZ BR OVC008
     FM221500 03009KT 3SM -RADZ BR OVC003
     FM222200 05009KT 3SM +RA BR OVC003=

USA.gov is the U.S. government's official web portal to all federal, state and local government web resources and services.